sensor_id;sensor_type;location;lat;lon;timestamp;temperature;humidity
14735;DHT22;7458;49.002;8.472;2023-04-03T00:00:42;6.40;99.90
14735;DHT22;7458;49.002;8.472;2023-04-03T00:03:08;7.20;99.90
14735;DHT22;7458;49.002;8.472;2023-04-03T00:15:25;6.60;99.90
14735;DHT22;7458;49.002;8.472;2023-04-03T00:17:51;6.70;99.90
14735;DHT22;7458;49.002;8.472;2023-04-03T00:20:17;6.50;99.90
14735;DHT22;7458;49.002;8.472;2023-04-03T00:25:09;6.30;99.90
14735;DHT22;7458;49.002;8.472;2023-04-03T00:27:37;6.70;99.90
14735;DHT22;7458;49.002;8.472;2023-04-03T00:30:06;6.70;99.90
14735;DHT22;7458;49.002;8.472;2023-04-03T00:32:33;6.60;99.90
14735;DHT22;7458;49.002;8.472;2023-04-03T00:34:59;7.00;99.90
14735;DHT22;7458;49.002;8.472;2023-04-03T00:47:16;6.70;99.90
14735;DHT22;7458;49.002;8.472;2023-04-03T00:49:44;6.70;99.90
14735;DHT22;7458;49.002;8.472;2023-04-03T00:52:16;6.70;99.90
14735;DHT22;7458;49.002;8.472;2023-04-03T00:54:45;6.80;99.90
14735;DHT22;7458;49.002;8.472;2023-04-03T00:57:14;6.70;99.90
14735;DHT22;7458;49.002;8.472;2023-04-03T00:59:52;6.60;99.90
14735;DHT22;7458;49.002;8.472;2023-04-03T01:02:23;6.60;99.90
14735;DHT22;7458;49.002;8.472;2023-04-03T01:07:18;6.60;99.90
14735;DHT22;7458;49.002;8.472;2023-04-03T01:09:48;6.60;99.90
14735;DHT22;7458;49.002;8.472;2023-04-03T01:12:27;6.50;99.90
14735;DHT22;7458;49.002;8.472;2023-04-03T01:15:05;6.70;99.90
14735;DHT22;7458;49.002;8.472;2023-04-03T01:17:39;6.70;99.90
14735;DHT22;7458;49.002;8.472;2023-04-03T01:25:44;6.50;99.90
14735;DHT22;7458;49.002;8.472;2023-04-03T01:28:19;6.20;99.90
14735;DHT22;7458;49.002;8.472;2023-04-03T01:33:41;5.30;99.90
14735;DHT22;7458;49.002;8.472;2023-04-03T01:36:09;6.30;99.90
14735;DHT22;7458;49.002;8.472;2023-04-03T01:48:23;6.20;99.90
14735;DHT22;7458;49.002;8.472;2023-04-03T01:50:48;6.30;99.90
14735;DHT22;7458;49.002;8.472;2023-04-03T01:53:14;6.10;99.90
14735;DHT22;7458;49.002;8.472;2023-04-03T02:10:17;6.20;99.90
14735;DHT22;7458;49.002;8.472;2023-04-03T02:15:09;6.10;99.90
14735;DHT22;7458;49.002;8.472;2023-04-03T02:17:35;5.80;99.90
14735;DHT22;7458;49.002;8.472;2023-04-03T02:20:01;6.00;99.90
14735;DHT22;7458;49.002;8.472;2023-04-03T02:24:55;6.00;99.90
14735;DHT22;7458;49.002;8.472;2023-04-03T02:32:12;5.40;99.90
14735;DHT22;7458;49.002;8.472;2023-04-03T02:34:38;5.90;99.90
14735;DHT22;7458;49.002;8.472;2023-04-03T02:39:30;6.20;99.90
14735;DHT22;7458;49.002;8.472;2023-04-03T02:41:56;5.30;99.90
14735;DHT22;7458;49.002;8.472;2023-04-03T02:44:21;5.70;99.90
14735;DHT22;7458;49.002;8.472;2023-04-03T02:46:49;5.60;99.90
14735;DHT22;7458;49.002;8.472;2023-04-03T02:54:08;5.80;99.90
14735;DHT22;7458;49.002;8.472;2023-04-03T03:01:26;5.80;99.90
14735;DHT22;7458;49.002;8.472;2023-04-03T03:03:56;5.40;99.90
14735;DHT22;7458;49.002;8.472;2023-04-03T03:06:23;5.20;99.90
14735;DHT22;7458;49.002;8.472;2023-04-03T03:16:08;5.60;99.90
14735;DHT22;7458;49.002;8.472;2023-04-03T03:18:34;5.20;99.90
14735;DHT22;7458;49.002;8.472;2023-04-03T03:21:02;5.30;99.90
14735;DHT22;7458;49.002;8.472;2023-04-03T03:23:30;5.20;99.90
14735;DHT22;7458;49.002;8.472;2023-04-03T03:26:08;5.70;99.90
14735;DHT22;7458;49.002;8.472;2023-04-03T03:28:36;5.40;99.90
14735;DHT22;7458;49.002;8.472;2023-04-03T03:33:31;5.30;99.90
14735;DHT22;7458;49.002;8.472;2023-04-03T03:35:57;4.90;99.90
14735;DHT22;7458;49.002;8.472;2023-04-03T03:38:23;5.40;99.90
14735;DHT22;7458;49.002;8.472;2023-04-03T03:43:16;5.40;99.90
14735;DHT22;7458;49.002;8.472;2023-04-03T03:45:43;5.70;99.90
14735;DHT22;7458;49.002;8.472;2023-04-03T03:48:11;5.70;99.90
14735;DHT22;7458;49.002;8.472;2023-04-03T03:50:37;5.40;99.90
14735;DHT22;7458;49.002;8.472;2023-04-03T03:55:29;5.90;99.90
14735;DHT22;7458;49.002;8.472;2023-04-03T03:57:54;5.70;99.90
14735;DHT22;7458;49.002;8.472;2023-04-03T04:10:05;4.70;99.90
14735;DHT22;7458;49.002;8.472;2023-04-03T04:14:57;4.90;99.90
14735;DHT22;7458;49.002;8.472;2023-04-03T04:22:15;6.20;99.90
14735;DHT22;7458;49.002;8.472;2023-04-03T04:27:07;6.00;99.90
14735;DHT22;7458;49.002;8.472;2023-04-03T04:29:33;5.40;99.90
14735;DHT22;7458;49.002;8.472;2023-04-03T04:32:02;5.60;99.90
14735;DHT22;7458;49.002;8.472;2023-04-03T04:34:28;5.50;99.90
14735;DHT22;7458;49.002;8.472;2023-04-03T04:39:21;5.80;99.90
14735;DHT22;7458;49.002;8.472;2023-04-03T04:41:46;5.20;99.90
14735;DHT22;7458;49.002;8.472;2023-04-03T04:44:12;5.60;99.90
14735;DHT22;7458;49.002;8.472;2023-04-03T04:46:38;5.30;99.90
14735;DHT22;7458;49.002;8.472;2023-04-03T04:49:03;5.50;99.90
14735;DHT22;7458;49.002;8.472;2023-04-03T04:51:30;5.40;99.90
14735;DHT22;7458;49.002;8.472;2023-04-03T04:53:55;5.40;99.90
14735;DHT22;7458;49.002;8.472;2023-04-03T05:01:13;5.10;99.90
14735;DHT22;7458;49.002;8.472;2023-04-03T05:03:39;5.10;99.90
14735;DHT22;7458;49.002;8.472;2023-04-03T05:06:05;4.80;99.90
14735;DHT22;7458;49.002;8.472;2023-04-03T05:08:32;4.90;99.90
14735;DHT22;7458;49.002;8.472;2023-04-03T05:13:24;4.90;99.90
14735;DHT22;7458;49.002;8.472;2023-04-03T05:15:49;5.30;99.90
14735;DHT22;7458;49.002;8.472;2023-04-03T05:18:15;5.30;99.90
14735;DHT22;7458;49.002;8.472;2023-04-03T05:20:41;4.90;99.90
14735;DHT22;7458;49.002;8.472;2023-04-03T05:23:09;5.40;99.90
14735;DHT22;7458;49.002;8.472;2023-04-03T05:25:38;5.00;99.90
14735;DHT22;7458;49.002;8.472;2023-04-03T05:28:04;5.00;99.90
14735;DHT22;7458;49.002;8.472;2023-04-03T05:40:16;5.50;99.90
14735;DHT22;7458;49.002;8.472;2023-04-03T05:45:08;4.10;99.90
14735;DHT22;7458;49.002;8.472;2023-04-03T05:52:31;5.10;99.90
14735;DHT22;7458;49.002;8.472;2023-04-03T05:55:00;5.50;99.90
14735;DHT22;7458;49.002;8.472;2023-04-03T05:59:52;5.60;99.90
14735;DHT22;7458;49.002;8.472;2023-04-03T06:02:21;5.50;99.90
14735;DHT22;7458;49.002;8.472;2023-04-03T06:04:48;5.40;99.90
14735;DHT22;7458;49.002;8.472;2023-04-03T06:07:19;5.30;99.90
14735;DHT22;7458;49.002;8.472;2023-04-03T06:09:52;5.50;99.90
14735;DHT22;7458;49.002;8.472;2023-04-03T06:12:19;5.80;99.90
14735;DHT22;7458;49.002;8.472;2023-04-03T06:19:39;6.10;99.90
14735;DHT22;7458;49.002;8.472;2023-04-03T06:22:05;5.80;99.90
14735;DHT22;7458;49.002;8.472;2023-04-03T06:26:58;6.70;99.90
14735;DHT22;7458;49.002;8.472;2023-04-03T06:29:24;7.30;99.90
14735;DHT22;7458;49.002;8.472;2023-04-03T06:31:51;7.60;99.90
14735;DHT22;7458;49.002;8.472;2023-04-03T06:34:17;7.90;99.90
14735;DHT22;7458;49.002;8.472;2023-04-03T06:36:44;10.30;99.90
14735;DHT22;7458;49.002;8.472;2023-04-03T06:39:19;10.10;96.70
14735;DHT22;7458;49.002;8.472;2023-04-03T06:41:48;12.50;90.10
14735;DHT22;7458;49.002;8.472;2023-04-03T06:44:14;14.70;76.70
14735;DHT22;7458;49.002;8.472;2023-04-03T06:46:41;15.00;72.00
14735;DHT22;7458;49.002;8.472;2023-04-03T06:49:08;15.30;68.90
14735;DHT22;7458;49.002;8.472;2023-04-03T06:51:36;14.40;68.40
14735;DHT22;7458;49.002;8.472;2023-04-03T06:54:03;14.10;65.80
14735;DHT22;7458;49.002;8.472;2023-04-03T06:56:31;15.20;63.20
14735;DHT22;7458;49.002;8.472;2023-04-03T07:01:26;13.00;79.10
14735;DHT22;7458;49.002;8.472;2023-04-03T07:06:20;13.10;79.90
14735;DHT22;7458;49.002;8.472;2023-04-03T07:11:15;11.30;84.70
14735;DHT22;7458;49.002;8.472;2023-04-03T07:13:41;10.20;87.80
14735;DHT22;7458;49.002;8.472;2023-04-03T07:16:13;10.40;90.10
14735;DHT22;7458;49.002;8.472;2023-04-03T07:23:31;11.80;90.10
14735;DHT22;7458;49.002;8.472;2023-04-03T07:25:57;11.70;90.20
14735;DHT22;7458;49.002;8.472;2023-04-03T07:31:02;11.60;88.50
14735;DHT22;7458;49.002;8.472;2023-04-03T07:35:58;10.90;90.10
14735;DHT22;7458;49.002;8.472;2023-04-03T07:38:24;10.20;91.40
14735;DHT22;7458;49.002;8.472;2023-04-03T07:40:53;10.10;79.30
14735;DHT22;7458;49.002;8.472;2023-04-03T07:43:20;10.10;78.80
14735;DHT22;7458;49.002;8.472;2023-04-03T07:45:48;9.90;79.50
14735;DHT22;7458;49.002;8.472;2023-04-03T07:48:19;9.60;78.50
14735;DHT22;7458;49.002;8.472;2023-04-03T07:53:12;10.20;93.20
14735;DHT22;7458;49.002;8.472;2023-04-03T07:55:39;10.40;93.10
14735;DHT22;7458;49.002;8.472;2023-04-03T07:58:12;10.20;84.50
14735;DHT22;7458;49.002;8.472;2023-04-03T08:00:40;10.60;92.20
14735;DHT22;7458;49.002;8.472;2023-04-03T08:03:08;10.90;85.90
14735;DHT22;7458;49.002;8.472;2023-04-03T08:05:37;10.50;77.10
14735;DHT22;7458;49.002;8.472;2023-04-03T08:08:05;10.80;92.00
14735;DHT22;7458;49.002;8.472;2023-04-03T08:10:32;11.00;81.30
14735;DHT22;7458;49.002;8.472;2023-04-03T08:17:52;11.90;90.10
14735;DHT22;7458;49.002;8.472;2023-04-03T08:20:18;11.40;88.00
14735;DHT22;7458;49.002;8.472;2023-04-03T08:22:44;12.00;88.90
14735;DHT22;7458;49.002;8.472;2023-04-03T08:25:10;10.50;89.10
14735;DHT22;7458;49.002;8.472;2023-04-03T08:37:22;9.00;92.40
14735;DHT22;7458;49.002;8.472;2023-04-03T08:39:48;10.00;93.10
14735;DHT22;7458;49.002;8.472;2023-04-03T08:42:38;9.40;93.10
14735;DHT22;7458;49.002;8.472;2023-04-03T08:45:27;10.10;92.50
14735;DHT22;7458;49.002;8.472;2023-04-03T08:48:07;10.70;89.40
14735;DHT22;7458;49.002;8.472;2023-04-03T08:50:43;10.70;91.20
14735;DHT22;7458;49.002;8.472;2023-04-03T08:53:16;10.50;75.30
14735;DHT22;7458;49.002;8.472;2023-04-03T08:55:48;10.70;91.20
14735;DHT22;7458;49.002;8.472;2023-04-03T08:58:21;10.60;81.00
14735;DHT22;7458;49.002;8.472;2023-04-03T09:01:21;11.20;90.50
14735;DHT22;7458;49.002;8.472;2023-04-03T09:03:51;11.50;90.30
14735;DHT22;7458;49.002;8.472;2023-04-03T09:06:20;12.20;88.40
14735;DHT22;7458;49.002;8.472;2023-04-03T09:23:18;11.00;68.40
14735;DHT22;7458;49.002;8.472;2023-04-03T09:25:48;11.10;69.10
14735;DHT22;7458;49.002;8.472;2023-04-03T09:33:08;9.80;73.70
14735;DHT22;7458;49.002;8.472;2023-04-03T09:35:37;10.10;73.00
14735;DHT22;7458;49.002;8.472;2023-04-03T09:40:40;9.90;86.20
14735;DHT22;7458;49.002;8.472;2023-04-03T09:45:43;10.80;84.30
14735;DHT22;7458;49.002;8.472;2023-04-03T09:50:59;11.90;83.10
14735;DHT22;7458;49.002;8.472;2023-04-03T09:58:48;12.70;60.90
14735;DHT22;7458;49.002;8.472;2023-04-03T10:01:26;12.70;75.30
14735;DHT22;7458;49.002;8.472;2023-04-03T10:09:23;13.60;72.80
14735;DHT22;7458;49.002;8.472;2023-04-03T10:12:04;14.00;73.20
14735;DHT22;7458;49.002;8.472;2023-04-03T10:14:36;14.40;74.00
14735;DHT22;7458;49.002;8.472;2023-04-03T10:19:52;14.30;58.50
14735;DHT22;7458;49.002;8.472;2023-04-03T10:25:17;13.30;71.20
14735;DHT22;7458;49.002;8.472;2023-04-03T10:28:03;13.20;69.70
14735;DHT22;7458;49.002;8.472;2023-04-03T10:31:21;12.90;61.30
14735;DHT22;7458;49.002;8.472;2023-04-03T10:40:01;12.30;70.70
14735;DHT22;7458;49.002;8.472;2023-04-03T10:57:01;13.30;68.70
14735;DHT22;7458;49.002;8.472;2023-04-03T11:05:31;13.50;51.60
14735;DHT22;7458;49.002;8.472;2023-04-03T11:08:15;12.70;67.10
14735;DHT22;7458;49.002;8.472;2023-04-03T11:10:50;12.80;67.60
14735;DHT22;7458;49.002;8.472;2023-04-03T11:13:21;12.90;67.10
14735;DHT22;7458;49.002;8.472;2023-04-03T11:15:53;13.20;58.30
14735;DHT22;7458;49.002;8.472;2023-04-03T11:18:42;12.60;67.20
14735;DHT22;7458;49.002;8.472;2023-04-03T11:21:31;12.20;57.10
14735;DHT22;7458;49.002;8.472;2023-04-03T11:24:03;12.10;70.90
14735;DHT22;7458;49.002;8.472;2023-04-03T11:26:37;11.80;55.40
14735;DHT22;7458;49.002;8.472;2023-04-03T11:29:19;11.80;72.30
14735;DHT22;7458;49.002;8.472;2023-04-03T11:34:44;11.70;55.90
14735;DHT22;7458;49.002;8.472;2023-04-03T11:37:29;11.40;70.80
14735;DHT22;7458;49.002;8.472;2023-04-03T11:40:23;12.00;72.70
14735;DHT22;7458;49.002;8.472;2023-04-03T11:43:02;11.70;55.40
14735;DHT22;7458;49.002;8.472;2023-04-03T11:45:36;11.80;72.40
14735;DHT22;7458;49.002;8.472;2023-04-03T11:50:54;11.90;74.40
14735;DHT22;7458;49.002;8.472;2023-04-03T11:55:55;11.70;73.90
14735;DHT22;7458;49.002;8.472;2023-04-03T11:58:33;11.10;65.80
14735;DHT22;7458;49.002;8.472;2023-04-03T12:01:01;11.10;75.80
14735;DHT22;7458;49.002;8.472;2023-04-03T12:03:33;11.10;77.00
14735;DHT22;7458;49.002;8.472;2023-04-03T12:08:59;11.50;73.60
14735;DHT22;7458;49.002;8.472;2023-04-03T12:11:32;11.60;72.00
14735;DHT22;7458;49.002;8.472;2023-04-03T12:14:14;11.30;61.00
14735;DHT22;7458;49.002;8.472;2023-04-03T12:16:42;11.20;74.60
14735;DHT22;7458;49.002;8.472;2023-04-03T12:33:04;11.40;58.50
14735;DHT22;7458;49.002;8.472;2023-04-03T12:38:55;11.50;73.70
14735;DHT22;7458;49.002;8.472;2023-04-03T12:45:14;10.90;57.20
14735;DHT22;7458;49.002;8.472;2023-04-03T12:47:49;10.70;57.00
14735;DHT22;7458;49.002;8.472;2023-04-03T12:50:28;10.40;61.90
14735;DHT22;7458;49.002;8.472;2023-04-03T12:53:03;10.40;58.30
14735;DHT22;7458;49.002;8.472;2023-04-03T12:55:29;10.60;77.50
14735;DHT22;7458;49.002;8.472;2023-04-03T12:57:55;10.60;75.20
14735;DHT22;7458;49.002;8.472;2023-04-03T13:00:35;10.80;56.70
14735;DHT22;7458;49.002;8.472;2023-04-03T13:03:05;10.70;57.10
14735;DHT22;7458;49.002;8.472;2023-04-03T13:05:45;10.90;74.70
14735;DHT22;7458;49.002;8.472;2023-04-03T13:08:13;11.20;76.60
14735;DHT22;7458;49.002;8.472;2023-04-03T13:11:10;11.50;76.80
14735;DHT22;7458;49.002;8.472;2023-04-03T13:13:37;11.00;63.80
14735;DHT22;7458;49.002;8.472;2023-04-03T13:16:10;10.50;76.10
14735;DHT22;7458;49.002;8.472;2023-04-03T13:18:38;10.60;57.90
14735;DHT22;7458;49.002;8.472;2023-04-03T13:23:45;10.80;74.70
14735;DHT22;7458;49.002;8.472;2023-04-03T13:26:17;10.90;72.20
14735;DHT22;7458;49.002;8.472;2023-04-03T13:28:46;10.50;72.90
14735;DHT22;7458;49.002;8.472;2023-04-03T13:31:29;10.70;72.10
14735;DHT22;7458;49.002;8.472;2023-04-03T13:36:34;10.90;55.80
14735;DHT22;7458;49.002;8.472;2023-04-03T13:41:52;10.70;59.90
14735;DHT22;7458;49.002;8.472;2023-04-03T13:46:54;10.90;73.10
14735;DHT22;7458;49.002;8.472;2023-04-03T13:51:55;11.10;71.00
14735;DHT22;7458;49.002;8.472;2023-04-03T13:56:57;11.10;72.50
14735;DHT22;7458;49.002;8.472;2023-04-03T14:07:14;11.10;71.70
14735;DHT22;7458;49.002;8.472;2023-04-03T14:09:42;10.40;72.70
14735;DHT22;7458;49.002;8.472;2023-04-03T14:12:15;10.90;73.20
14735;DHT22;7458;49.002;8.472;2023-04-03T14:14:46;11.20;72.50
14735;DHT22;7458;49.002;8.472;2023-04-03T14:17:21;10.80;63.70
14735;DHT22;7458;49.002;8.472;2023-04-03T14:19:50;11.00;64.70
14735;DHT22;7458;49.002;8.472;2023-04-03T14:22:21;10.90;69.50
14735;DHT22;7458;49.002;8.472;2023-04-03T14:27:33;11.00;54.30
14735;DHT22;7458;49.002;8.472;2023-04-03T14:30:01;10.90;70.60
14735;DHT22;7458;49.002;8.472;2023-04-03T14:37:25;11.30;70.10
14735;DHT22;7458;49.002;8.472;2023-04-03T14:39:56;11.10;54.90
14735;DHT22;7458;49.002;8.472;2023-04-03T14:42:27;10.90;71.40
14735;DHT22;7458;49.002;8.472;2023-04-03T14:44:57;10.90;54.80
14735;DHT22;7458;49.002;8.472;2023-04-03T14:47:26;11.00;73.80
14735;DHT22;7458;49.002;8.472;2023-04-03T14:49:54;10.80;56.00
14735;DHT22;7458;49.002;8.472;2023-04-03T14:52:30;11.00;72.90
14735;DHT22;7458;49.002;8.472;2023-04-03T14:54:58;10.80;55.70
14735;DHT22;7458;49.002;8.472;2023-04-03T14:57:27;11.00;55.70
14735;DHT22;7458;49.002;8.472;2023-04-03T14:59:54;10.00;58.70
14735;DHT22;7458;49.002;8.472;2023-04-03T15:04:59;10.40;68.90
14735;DHT22;7458;49.002;8.472;2023-04-03T15:07:28;10.60;55.40
14735;DHT22;7458;49.002;8.472;2023-04-03T15:09:55;10.50;58.20
14735;DHT22;7458;49.002;8.472;2023-04-03T15:12:23;10.20;70.70
14735;DHT22;7458;49.002;8.472;2023-04-03T15:17:19;10.50;73.20
14735;DHT22;7458;49.002;8.472;2023-04-03T15:19:47;10.90;74.50
14735;DHT22;7458;49.002;8.472;2023-04-03T15:22:15;10.20;57.00
14735;DHT22;7458;49.002;8.472;2023-04-03T15:24:44;9.90;71.50
14735;DHT22;7458;49.002;8.472;2023-04-03T15:27:11;9.90;73.70
14735;DHT22;7458;49.002;8.472;2023-04-03T15:29:39;10.50;72.90
14735;DHT22;7458;49.002;8.472;2023-04-03T15:32:08;10.00;64.50
14735;DHT22;7458;49.002;8.472;2023-04-03T15:34:36;10.00;55.50
14735;DHT22;7458;49.002;8.472;2023-04-03T15:39:28;10.20;66.60
14735;DHT22;7458;49.002;8.472;2023-04-03T15:44:22;10.40;61.50
14735;DHT22;7458;49.002;8.472;2023-04-03T15:46:48;10.30;69.80
14735;DHT22;7458;49.002;8.472;2023-04-03T15:49:17;10.40;69.90
14735;DHT22;7458;49.002;8.472;2023-04-03T15:54:10;10.50;59.10
14735;DHT22;7458;49.002;8.472;2023-04-03T15:59:02;10.30;61.70
14735;DHT22;7458;49.002;8.472;2023-04-03T16:01:29;9.60;70.40
14735;DHT22;7458;49.002;8.472;2023-04-03T16:03:55;10.40;71.30
14735;DHT22;7458;49.002;8.472;2023-04-03T16:06:21;10.20;72.60
14735;DHT22;7458;49.002;8.472;2023-04-03T16:08:49;10.20;72.20
14735;DHT22;7458;49.002;8.472;2023-04-03T16:13:42;9.60;54.90
14735;DHT22;7458;49.002;8.472;2023-04-03T16:16:09;9.90;67.60
14735;DHT22;7458;49.002;8.472;2023-04-03T16:21:02;9.80;54.50
14735;DHT22;7458;49.002;8.472;2023-04-03T16:23:28;9.60;60.50
14735;DHT22;7458;49.002;8.472;2023-04-03T16:30:46;10.30;73.00
14735;DHT22;7458;49.002;8.472;2023-04-03T16:33:13;9.60;57.80
14735;DHT22;7458;49.002;8.472;2023-04-03T16:35:39;9.80;72.10
14735;DHT22;7458;49.002;8.472;2023-04-03T16:38:07;9.30;72.00
14735;DHT22;7458;49.002;8.472;2023-04-03T16:40:33;9.30;73.60
14735;DHT22;7458;49.002;8.472;2023-04-03T16:43:01;9.60;55.40
14735;DHT22;7458;49.002;8.472;2023-04-03T16:45:27;9.30;73.40
14735;DHT22;7458;49.002;8.472;2023-04-03T16:47:52;9.80;73.60
14735;DHT22;7458;49.002;8.472;2023-04-03T16:50:18;9.50;61.10
14735;DHT22;7458;49.002;8.472;2023-04-03T16:52:47;9.90;55.40
14735;DHT22;7458;49.002;8.472;2023-04-03T16:57:39;9.40;72.20
14735;DHT22;7458;49.002;8.472;2023-04-03T17:00:06;9.60;72.90
14735;DHT22;7458;49.002;8.472;2023-04-03T17:02:32;9.20;63.70
14735;DHT22;7458;49.002;8.472;2023-04-03T17:07:25;9.20;73.30
14735;DHT22;7458;49.002;8.472;2023-04-03T17:09:51;9.60;73.40
14735;DHT22;7458;49.002;8.472;2023-04-03T17:14:45;9.30;62.10
14735;DHT22;7458;49.002;8.472;2023-04-03T17:17:13;9.30;75.40
14735;DHT22;7458;49.002;8.472;2023-04-03T17:19:40;9.30;75.10
14735;DHT22;7458;49.002;8.472;2023-04-03T17:22:08;9.00;74.50
14735;DHT22;7458;49.002;8.472;2023-04-03T17:24:35;9.30;75.30
14735;DHT22;7458;49.002;8.472;2023-04-03T17:27:01;9.50;74.70
14735;DHT22;7458;49.002;8.472;2023-04-03T17:29:27;9.20;73.30
14735;DHT22;7458;49.002;8.472;2023-04-03T17:31:53;9.10;75.90
14735;DHT22;7458;49.002;8.472;2023-04-03T17:34:19;9.20;75.20
14735;DHT22;7458;49.002;8.472;2023-04-03T17:41:37;8.80;75.50
14735;DHT22;7458;49.002;8.472;2023-04-03T17:44:03;8.60;71.60
14735;DHT22;7458;49.002;8.472;2023-04-03T17:48:56;8.50;77.20
14735;DHT22;7458;49.002;8.472;2023-04-03T17:51:24;8.50;76.90
14735;DHT22;7458;49.002;8.472;2023-04-03T17:53:51;8.40;77.00
14735;DHT22;7458;49.002;8.472;2023-04-03T17:56:19;8.30;76.90
14735;DHT22;7458;49.002;8.472;2023-04-03T17:58:48;8.40;59.10
14735;DHT22;7458;49.002;8.472;2023-04-03T18:01:35;8.30;59.20
14735;DHT22;7458;49.002;8.472;2023-04-03T18:04:03;8.30;78.40
14735;DHT22;7458;49.002;8.472;2023-04-03T18:06:31;8.30;78.10
14735;DHT22;7458;49.002;8.472;2023-04-03T18:09:09;8.30;78.60
14735;DHT22;7458;49.002;8.472;2023-04-03T18:11:37;8.10;78.50
14735;DHT22;7458;49.002;8.472;2023-04-03T18:14:04;8.10;59.90
14735;DHT22;7458;49.002;8.472;2023-04-03T18:16:32;8.40;79.20
14735;DHT22;7458;49.002;8.472;2023-04-03T18:21:25;8.30;78.90
14735;DHT22;7458;49.002;8.472;2023-04-03T18:23:53;7.60;79.60
14735;DHT22;7458;49.002;8.472;2023-04-03T18:26:21;7.50;66.50
14735;DHT22;7458;49.002;8.472;2023-04-03T18:28:55;7.80;60.90
14735;DHT22;7458;49.002;8.472;2023-04-03T18:31:26;7.90;79.00
14735;DHT22;7458;49.002;8.472;2023-04-03T18:33:55;7.60;79.40
14735;DHT22;7458;49.002;8.472;2023-04-03T18:36:24;7.40;79.20
14735;DHT22;7458;49.002;8.472;2023-04-03T18:41:18;7.70;60.80
14735;DHT22;7458;49.002;8.472;2023-04-03T18:43:47;7.90;79.20
14735;DHT22;7458;49.002;8.472;2023-04-03T18:46:13;7.90;79.40
14735;DHT22;7458;49.002;8.472;2023-04-03T18:51:08;7.30;79.10
14735;DHT22;7458;49.002;8.472;2023-04-03T18:56:02;7.30;79.20
14735;DHT22;7458;49.002;8.472;2023-04-03T18:58:28;7.20;67.10
14735;DHT22;7458;49.002;8.472;2023-04-03T19:00:54;7.90;79.00
14735;DHT22;7458;49.002;8.472;2023-04-03T19:08:12;7.20;78.10
14735;DHT22;7458;49.002;8.472;2023-04-03T19:10:38;7.00;78.10
14735;DHT22;7458;49.002;8.472;2023-04-03T19:13:04;7.10;75.40
14735;DHT22;7458;49.002;8.472;2023-04-03T19:15:30;7.20;78.10
14735;DHT22;7458;49.002;8.472;2023-04-03T19:22:48;6.90;77.40
14735;DHT22;7458;49.002;8.472;2023-04-03T19:25:15;6.90;77.80
14735;DHT22;7458;49.002;8.472;2023-04-03T19:30:09;6.90;70.30
14735;DHT22;7458;49.002;8.472;2023-04-03T19:32:36;6.90;78.60
14735;DHT22;7458;49.002;8.472;2023-04-03T19:35:03;6.80;78.80
14735;DHT22;7458;49.002;8.472;2023-04-03T19:37:29;6.80;78.60
14735;DHT22;7458;49.002;8.472;2023-04-03T19:39:55;6.80;78.80
14735;DHT22;7458;49.002;8.472;2023-04-03T19:42:21;6.80;78.40
14735;DHT22;7458;49.002;8.472;2023-04-03T19:44:47;6.80;67.20
14735;DHT22;7458;49.002;8.472;2023-04-03T19:47:15;6.80;60.40
14735;DHT22;7458;49.002;8.472;2023-04-03T19:49:42;6.80;79.00
14735;DHT22;7458;49.002;8.472;2023-04-03T19:52:08;6.90;79.20
14735;DHT22;7458;49.002;8.472;2023-04-03T19:57:00;6.70;79.70
14735;DHT22;7458;49.002;8.472;2023-04-03T19:59:26;6.10;79.10
14735;DHT22;7458;49.002;8.472;2023-04-03T20:01:52;6.70;70.00
14735;DHT22;7458;49.002;8.472;2023-04-03T20:04:18;6.30;78.70
14735;DHT22;7458;49.002;8.472;2023-04-03T20:06:43;6.50;79.10
14735;DHT22;7458;49.002;8.472;2023-04-03T20:09:10;6.50;79.70
14735;DHT22;7458;49.002;8.472;2023-04-03T20:11:36;6.50;62.10
14735;DHT22;7458;49.002;8.472;2023-04-03T20:14:05;6.40;61.60
14735;DHT22;7458;49.002;8.472;2023-04-03T20:16:31;6.20;70.00
14735;DHT22;7458;49.002;8.472;2023-04-03T20:18:57;6.50;80.00
14735;DHT22;7458;49.002;8.472;2023-04-03T20:21:32;6.80;76.60
14735;DHT22;7458;49.002;8.472;2023-04-03T20:23:59;6.30;80.40
14735;DHT22;7458;49.002;8.472;2023-04-03T20:26:28;6.60;80.60
14735;DHT22;7458;49.002;8.472;2023-04-03T20:28:57;5.90;69.50
14735;DHT22;7458;49.002;8.472;2023-04-03T20:31:26;6.40;70.40
14735;DHT22;7458;49.002;8.472;2023-04-03T20:33:53;5.80;81.30
14735;DHT22;7458;49.002;8.472;2023-04-03T20:36:21;5.90;66.60
14735;DHT22;7458;49.002;8.472;2023-04-03T20:38:47;6.10;81.50
14735;DHT22;7458;49.002;8.472;2023-04-03T20:41:15;6.00;64.00
14735;DHT22;7458;49.002;8.472;2023-04-03T20:43:42;6.20;71.10
14735;DHT22;7458;49.002;8.472;2023-04-03T20:46:09;5.80;71.00
14735;DHT22;7458;49.002;8.472;2023-04-03T20:48:36;5.90;82.40
14735;DHT22;7458;49.002;8.472;2023-04-03T20:51:13;5.90;81.50
14735;DHT22;7458;49.002;8.472;2023-04-03T20:56:07;6.50;79.40
14735;DHT22;7458;49.002;8.472;2023-04-03T20:58:34;5.80;87.00
14735;DHT22;7458;49.002;8.472;2023-04-03T21:01:11;5.70;82.80
14735;DHT22;7458;49.002;8.472;2023-04-03T21:21:33;5.80;78.40
14735;DHT22;7458;49.002;8.472;2023-04-03T21:24:03;6.10;85.00
14735;DHT22;7458;49.002;8.472;2023-04-03T21:26:32;5.20;65.80
14735;DHT22;7458;49.002;8.472;2023-04-03T21:29:01;5.60;89.20
14735;DHT22;7458;49.002;8.472;2023-04-03T21:34:13;5.60;84.80
14735;DHT22;7458;49.002;8.472;2023-04-03T21:36:40;5.20;66.40
14735;DHT22;7458;49.002;8.472;2023-04-03T21:39:06;5.50;89.40
14735;DHT22;7458;49.002;8.472;2023-04-03T21:43:58;5.70;84.50
14735;DHT22;7458;49.002;8.472;2023-04-03T21:51:16;5.30;90.00
14735;DHT22;7458;49.002;8.472;2023-04-03T21:53:42;5.80;90.50
14735;DHT22;7458;49.002;8.472;2023-04-03T21:56:09;5.30;86.50
14735;DHT22;7458;49.002;8.472;2023-04-03T22:01:12;4.90;67.70
14735;DHT22;7458;49.002;8.472;2023-04-03T22:03:40;5.10;87.20
14735;DHT22;7458;49.002;8.472;2023-04-03T22:06:07;5.00;77.60
14735;DHT22;7458;49.002;8.472;2023-04-03T22:08:33;6.30;70.60
14735;DHT22;7458;49.002;8.472;2023-04-03T22:11:04;4.20;91.10
14735;DHT22;7458;49.002;8.472;2023-04-03T22:13:31;5.00;87.10
14735;DHT22;7458;49.002;8.472;2023-04-03T22:15:58;4.60;69.40
14735;DHT22;7458;49.002;8.472;2023-04-03T22:18:28;4.40;87.60
14735;DHT22;7458;49.002;8.472;2023-04-03T22:20:55;4.70;69.60
14735;DHT22;7458;49.002;8.472;2023-04-03T22:23:21;4.90;69.80
14735;DHT22;7458;49.002;8.472;2023-04-03T22:26:07;4.70;91.20
14735;DHT22;7458;49.002;8.472;2023-04-03T22:28:42;4.80;69.10
14735;DHT22;7458;49.002;8.472;2023-04-03T22:31:11;4.50;88.30
14735;DHT22;7458;49.002;8.472;2023-04-03T22:33:39;4.50;70.80
14735;DHT22;7458;49.002;8.472;2023-04-03T22:36:08;4.90;89.10
14735;DHT22;7458;49.002;8.472;2023-04-03T22:41:04;4.60;71.10
14735;DHT22;7458;49.002;8.472;2023-04-03T22:43:32;4.60;71.30
14735;DHT22;7458;49.002;8.472;2023-04-03T22:46:01;4.60;89.20
14735;DHT22;7458;49.002;8.472;2023-04-03T22:53:21;4.40;88.90
14735;DHT22;7458;49.002;8.472;2023-04-03T22:55:58;4.50;92.10
14735;DHT22;7458;49.002;8.472;2023-04-03T23:01:11;3.50;91.80
14735;DHT22;7458;49.002;8.472;2023-04-03T23:03:40;4.30;92.10
14735;DHT22;7458;49.002;8.472;2023-04-03T23:06:08;4.40;71.80
14735;DHT22;7458;49.002;8.472;2023-04-03T23:08:35;4.30;71.30
14735;DHT22;7458;49.002;8.472;2023-04-03T23:11:06;4.20;89.60